createdAt,value
2018-12-29T00:00:33.563Z,91.23
2018-12-29T00:03:03.860Z,92.50
2018-12-29T00:05:34.088Z,86.83
2018-12-29T00:08:04.364Z,82.27
2018-12-29T00:10:34.511Z,81.27
2018-12-29T00:13:04.704Z,93.43
2018-12-29T00:15:34.990Z,87.63
2018-12-29T00:18:05.299Z,85.40
2018-12-29T00:20:35.490Z,84.53
2018-12-29T00:23:06.437Z,94.70
2018-12-29T00:25:36.608Z,90.63
2018-12-29T00:28:06.800Z,100.30
2018-12-29T00:30:37.020Z,90.83
2018-12-29T00:33:07.232Z,97.87
2018-12-29T00:35:38.927Z,102.17
2018-12-29T00:38:09.067Z,85.43
2018-12-29T00:40:39.301Z,79.83
2018-12-29T00:43:09.619Z,94.20
2018-12-29T00:45:39.785Z,92.33
2018-12-29T00:48:10.023Z,88.57
2018-12-29T00:50:40.655Z,89.60
2018-12-29T00:53:10.826Z,93.57
2018-12-29T00:55:40.994Z,92.70
2018-12-29T00:58:11.211Z,83.17
2018-12-29T01:00:41.349Z,79.03
2018-12-29T01:03:11.507Z,91.40
2018-12-29T01:05:41.707Z,96.53
2018-12-29T01:08:11.900Z,81.27
2018-12-29T01:10:42.091Z,94.17
2018-12-29T01:13:12.278Z,90.47
2018-12-29T01:15:42.443Z,90.90
2018-12-29T01:18:12.702Z,89.83
2018-12-29T01:20:42.926Z,80.10
2018-12-29T01:23:13.128Z,81.47
2018-12-29T01:25:43.349Z,76.00
2018-12-29T01:28:13.511Z,75.40
2018-12-29T01:30:43.675Z,89.43
2018-12-29T01:33:13.892Z,91.07
2018-12-29T01:35:45.242Z,79.67
2018-12-29T01:38:15.511Z,80.40
2018-12-29T01:40:45.792Z,84.27
2018-12-29T01:43:16.035Z,73.13
2018-12-29T01:45:46.222Z,81.07
2018-12-29T01:48:16.427Z,86.23
2018-12-29T01:50:46.687Z,79.93
2018-12-29T01:53:16.869Z,81.60
2018-12-29T01:55:47.058Z,85.67
2018-12-29T01:58:17.259Z,75.57
2018-12-29T02:00:47.482Z,72.30
2018-12-29T02:03:17.665Z,86.83
2018-12-29T02:05:47.849Z,72.80
2018-12-29T02:08:18.023Z,88.13
2018-12-29T02:10:48.215Z,84.57
2018-12-29T02:13:18.391Z,76.60
2018-12-29T02:15:48.611Z,84.57
2018-12-29T02:18:18.856Z,78.70
2018-12-29T02:20:49.122Z,79.83
2018-12-29T02:23:19.296Z,80.80
2018-12-29T02:25:49.523Z,80.20
2018-12-29T02:28:19.664Z,81.67
2018-12-29T02:30:49.868Z,79.50
2018-12-29T02:33:20.187Z,74.93
2018-12-29T02:35:50.471Z,75.10
2018-12-29T02:38:20.739Z,79.70
2018-12-29T02:40:50.893Z,92.47
2018-12-29T02:43:21.060Z,74.63
2018-12-29T02:45:51.247Z,82.67
2018-12-29T02:48:21.502Z,86.10
2018-12-29T02:50:51.669Z,77.80
2018-12-29T02:53:21.844Z,82.60
2018-12-29T02:55:52.008Z,90.57
2018-12-29T02:58:23.664Z,87.40
2018-12-29T03:00:53.859Z,82.93
2018-12-29T03:03:24.059Z,87.90
2018-12-29T03:05:54.227Z,78.90
2018-12-29T03:08:24.454Z,73.37
2018-12-29T03:10:54.787Z,77.90
2018-12-29T03:13:24.971Z,77.30
2018-12-29T03:15:55.144Z,83.93
2018-12-29T03:18:25.345Z,84.40
2018-12-29T03:20:55.523Z,90.67
2018-12-29T03:23:25.719Z,84.97
2018-12-29T03:25:55.910Z,80.07
2018-12-29T03:28:26.098Z,85.23
2018-12-29T03:30:56.330Z,84.23
2018-12-29T03:33:26.586Z,87.57
2018-12-29T03:35:56.788Z,90.73
2018-12-29T03:38:27.029Z,89.43
2018-12-29T03:40:57.279Z,83.37
2018-12-29T03:43:27.505Z,91.57
2018-12-29T03:45:57.724Z,94.33
2018-12-29T03:48:27.885Z,105.33
2018-12-29T03:50:58.085Z,95.43
2018-12-29T03:53:28.276Z,104.03
2018-12-29T03:55:59.424Z,97.10
2018-12-29T03:58:29.693Z,106.03
2018-12-29T04:00:59.880Z,99.57
2018-12-29T04:03:30.086Z,91.50
2018-12-29T04:06:00.281Z,105.80
2018-12-29T04:08:30.460Z,95.90
2018-12-29T04:11:00.698Z,104.83
2018-12-29T04:13:30.920Z,95.30
2018-12-29T04:16:01.139Z,101.13
2018-12-29T04:18:32.805Z,112.20
2018-12-29T04:21:02.990Z,111.30
2018-12-29T04:23:33.245Z,109.30
2018-12-29T04:26:03.417Z,119.80
2018-12-29T04:28:33.612Z,115.57
2018-12-29T04:31:03.832Z,106.77
2018-12-29T04:33:34.038Z,109.03
2018-12-29T04:36:05.349Z,111.13
2018-12-29T04:38:35.551Z,115.03
2018-12-29T04:41:05.876Z,114.97
2018-12-29T04:43:36.071Z,114.80
2018-12-29T04:46:06.297Z,102.67
2018-12-29T04:48:36.472Z,106.97
2018-12-29T04:51:06.655Z,107.93
2018-12-29T04:53:36.860Z,111.33
2018-12-29T04:56:07.072Z,126.37
2018-12-29T04:58:37.344Z,115.70
2018-12-29T05:01:07.504Z,119.47
2018-12-29T05:03:37.757Z,123.67
2018-12-29T05:06:08.017Z,122.37
2018-12-29T05:08:38.216Z,111.87
2018-12-29T05:11:09.844Z,120.57
2018-12-29T05:13:40.124Z,118.63
2018-12-29T05:16:13.037Z,128.50
2018-12-29T05:18:42.219Z,126.93
2018-12-29T05:21:12.412Z,123.23
2018-12-29T05:23:42.598Z,115.13
2018-12-29T05:26:12.775Z,111.93
2018-12-29T05:28:42.951Z,117.80
2018-12-29T05:31:13.164Z,126.23
2018-12-29T05:33:43.344Z,121.03
2018-12-29T05:36:13.676Z,114.53
2018-12-29T05:38:43.870Z,120.27
2018-12-29T05:41:14.045Z,118.47
2018-12-29T05:43:44.236Z,110.93
2018-12-29T05:46:20.369Z,111.40
2018-12-29T05:48:46.352Z,113.23
2018-12-29T05:51:16.623Z,107.57
2018-12-29T05:53:46.823Z,108.53
2018-12-29T05:56:17.873Z,115.23
2018-12-29T05:58:48.171Z,106.83
2018-12-29T06:01:18.356Z,114.97
2018-12-29T06:03:48.543Z,108.83
2018-12-29T06:06:18.823Z,112.73
2018-12-29T06:08:49.035Z,130.53
2018-12-29T06:11:19.281Z,121.13
2018-12-29T06:13:49.504Z,110.70
2018-12-29T06:16:19.680Z,123.97
2018-12-29T06:18:49.840Z,122.33
2018-12-29T06:21:21.504Z,118.33
2018-12-29T06:23:51.659Z,107.57
2018-12-29T06:26:21.854Z,117.20
2018-12-29T06:28:52.039Z,111.07
2018-12-29T06:31:22.191Z,110.33
2018-12-29T06:33:52.400Z,114.13
2018-12-29T06:36:22.636Z,115.60
2018-12-29T06:38:52.828Z,110.17
2018-12-29T06:41:23.008Z,113.17
2018-12-29T06:43:53.172Z,98.00
2018-12-29T06:46:23.324Z,95.80
2018-12-29T06:48:53.509Z,102.47
2018-12-29T06:51:23.720Z,114.60
2018-12-29T06:53:53.942Z,90.10
2018-12-29T06:56:24.148Z,103.33
2018-12-29T06:58:54.296Z,99.63
2018-12-29T07:01:24.564Z,92.73
2018-12-29T07:03:54.748Z,100.93
2018-12-29T07:06:24.912Z,99.37
2018-12-29T07:08:55.070Z,96.20
2018-12-29T07:11:25.240Z,87.47
2018-12-29T07:13:55.428Z,94.80
2018-12-29T07:16:25.595Z,98.37
2018-12-29T07:18:55.759Z,99.60
2018-12-29T07:21:25.982Z,112.00
2018-12-29T07:23:56.327Z,97.97
2018-12-29T07:26:26.584Z,101.03
2018-12-29T07:28:56.770Z,99.87
2018-12-29T07:31:26.971Z,103.33
2018-12-29T07:33:57.214Z,107.80
2018-12-29T07:36:27.441Z,103.03
2018-12-29T07:38:57.625Z,108.20
2018-12-29T07:41:27.786Z,86.10
2018-12-29T07:43:57.961Z,103.63
2018-12-29T07:46:28.219Z,96.30
2018-12-29T07:48:58.351Z,93.33
2018-12-29T07:51:28.603Z,107.47
2018-12-29T07:53:58.779Z,98.80
2018-12-29T07:56:28.960Z,98.00
2018-12-29T07:58:59.136Z,95.50
2018-12-29T08:01:29.312Z,99.47
2018-12-29T08:03:59.463Z,95.80
2018-12-29T08:06:29.639Z,95.50
2018-12-29T08:08:59.883Z,97.43
2018-12-29T08:11:30.070Z,96.93
2018-12-29T08:14:00.234Z,90.00
2018-12-29T08:16:30.407Z,84.57
2018-12-29T08:19:00.819Z,90.10
2018-12-29T08:21:31.079Z,87.10
2018-12-29T08:24:01.245Z,89.87
2018-12-29T08:26:31.421Z,86.83
2018-12-29T08:29:01.572Z,82.60
2018-12-29T08:31:31.769Z,97.27
2018-12-29T08:34:01.929Z,84.30
2018-12-29T08:36:32.464Z,95.57
2018-12-29T08:39:04.304Z,98.27
2018-12-29T08:41:34.516Z,89.20
2018-12-29T08:44:04.888Z,86.83
2018-12-29T08:46:35.048Z,96.93
2018-12-29T08:49:05.263Z,89.50
2018-12-29T08:51:35.663Z,91.47
2018-12-29T08:54:05.871Z,80.07
2018-12-29T08:56:37.212Z,87.73
2018-12-29T08:59:07.497Z,70.70
2018-12-29T09:01:37.750Z,69.93
2018-12-29T09:04:07.902Z,76.17
2018-12-29T09:06:38.079Z,71.57
2018-12-29T09:09:08.300Z,87.13
2018-12-29T09:11:38.463Z,73.53
2018-12-29T09:14:08.626Z,72.77
2018-12-29T09:16:38.783Z,68.70
2018-12-29T09:19:09.076Z,61.20
2018-12-29T09:21:39.316Z,73.20
2018-12-29T09:24:09.463Z,76.60
2018-12-29T09:26:39.660Z,68.07
2018-12-29T09:29:09.852Z,82.40
2018-12-29T09:31:41.795Z,73.63
2018-12-29T09:34:12.044Z,72.83
2018-12-29T09:36:42.328Z,69.63
2018-12-29T09:39:12.597Z,73.37
2018-12-29T09:41:42.756Z,71.33
2018-12-29T09:44:13.038Z,74.63
2018-12-29T09:46:43.208Z,62.50
2018-12-29T09:49:13.384Z,73.10
2018-12-29T09:51:43.591Z,81.27
2018-12-29T09:54:13.824Z,69.17
2018-12-29T09:56:44.112Z,72.20
2018-12-29T09:59:14.300Z,65.70
2018-12-29T10:01:44.673Z,71.70
2018-12-29T10:04:14.847Z,74.13
2018-12-29T10:06:45.008Z,67.87
2018-12-29T10:09:15.170Z,60.17
2018-12-29T10:11:45.352Z,74.23
2018-12-29T10:14:15.548Z,71.03
2018-12-29T10:16:45.711Z,75.50
2018-12-29T10:19:15.872Z,74.43
2018-12-29T10:21:46.500Z,62.17
2018-12-29T10:24:16.711Z,71.00
2018-12-29T10:26:46.876Z,68.83
2018-12-29T10:29:20.047Z,76.73
2018-12-29T10:31:50.187Z,75.17
2018-12-29T10:34:20.358Z,66.23
2018-12-29T10:36:50.560Z,68.93
2018-12-29T10:39:20.700Z,70.00
2018-12-29T10:41:50.895Z,63.93
2018-12-29T10:44:21.096Z,66.40
2018-12-29T10:46:51.248Z,71.70
2018-12-29T10:49:21.402Z,57.40
2018-12-29T10:51:51.593Z,64.67
2018-12-29T10:54:21.784Z,62.93
2018-12-29T10:56:51.933Z,68.53
2018-12-29T10:59:22.111Z,64.50
2018-12-29T11:01:52.393Z,66.33
2018-12-29T11:04:22.725Z,53.60
2018-12-29T11:06:52.927Z,65.77
2018-12-29T11:09:24.173Z,57.87
2018-12-29T11:11:57.048Z,68.30
2018-12-29T11:14:27.242Z,61.03
2018-12-29T11:16:57.438Z,59.57
2018-12-29T11:19:27.592Z,52.80
2018-12-29T11:21:57.755Z,65.53
2018-12-29T11:24:28.014Z,60.80
2018-12-29T11:26:58.204Z,58.97
2018-12-29T11:29:28.392Z,60.57
2018-12-29T11:31:58.548Z,58.37
2018-12-29T11:34:28.703Z,52.00
2018-12-29T11:36:59.019Z,54.87
2018-12-29T11:39:29.204Z,56.60
2018-12-29T11:41:59.352Z,51.87
2018-12-29T11:44:29.514Z,59.83
2018-12-29T11:46:59.683Z,49.70
2018-12-29T11:49:29.959Z,55.00
2018-12-29T11:52:00.131Z,47.03
2018-12-29T11:54:30.368Z,54.30
2018-12-29T11:57:00.603Z,57.20
2018-12-29T11:59:30.796Z,50.33
2018-12-29T12:02:00.944Z,51.70
2018-12-29T12:04:31.141Z,49.20
2018-12-29T12:07:01.710Z,51.50
2018-12-29T12:09:32.007Z,53.50
2018-12-29T12:12:02.205Z,45.03
2018-12-29T12:14:33.876Z,47.70
2018-12-29T12:17:04.031Z,53.73
2018-12-29T12:19:34.247Z,44.67
2018-12-29T12:22:04.428Z,46.53
2018-12-29T12:24:34.614Z,44.47
2018-12-29T12:27:04.851Z,52.03
2018-12-29T12:29:36.223Z,49.37
2018-12-29T12:32:06.412Z,47.83
2018-12-29T12:34:36.579Z,44.23
2018-12-29T12:37:06.796Z,49.47
2018-12-29T12:39:37.085Z,43.20
2018-12-29T12:42:07.451Z,46.47
2018-12-29T12:44:37.689Z,48.53
2018-12-29T12:47:08.229Z,40.23
2018-12-29T12:49:38.493Z,49.20
2018-12-29T12:52:08.679Z,39.63
2018-12-29T12:54:40.011Z,43.63
2018-12-29T12:57:10.745Z,48.03
2018-12-29T12:59:41.217Z,50.23
2018-12-29T13:02:12.369Z,52.63
2018-12-29T13:04:42.922Z,48.10
2018-12-29T13:07:13.104Z,48.90
2018-12-29T13:09:43.279Z,48.97
2018-12-29T13:12:13.499Z,48.20
2018-12-29T13:14:43.692Z,47.53
2018-12-29T13:17:14.983Z,55.67
2018-12-29T13:19:45.205Z,44.70
2018-12-29T13:22:15.365Z,46.53
2018-12-29T13:24:45.554Z,39.50
2018-12-29T13:27:16.021Z,42.57
2018-12-29T13:29:46.265Z,43.20
2018-12-29T13:32:16.526Z,49.03
2018-12-29T13:34:46.795Z,47.50
2018-12-29T13:37:16.964Z,47.83
2018-12-29T13:39:47.144Z,46.97
2018-12-29T13:42:17.345Z,46.47
2018-12-29T13:44:47.616Z,38.47
2018-12-29T13:47:17.795Z,52.17
2018-12-29T13:49:48.023Z,46.60
2018-12-29T13:52:18.218Z,40.60
2018-12-29T13:54:49.876Z,34.33
2018-12-29T13:57:20.090Z,47.77
2018-12-29T13:59:50.655Z,41.80
2018-12-29T14:02:20.816Z,45.27
2018-12-29T14:04:51.140Z,46.60
2018-12-29T14:07:21.329Z,45.33
2018-12-29T14:09:51.564Z,45.73
2018-12-29T14:12:21.742Z,41.37
2018-12-29T14:14:51.979Z,40.80
2018-12-29T14:17:22.180Z,38.47
2018-12-29T14:19:52.430Z,40.73
2018-12-29T14:22:22.655Z,31.10
2018-12-29T14:24:52.887Z,34.10
2018-12-29T14:27:23.040Z,35.77
2018-12-29T14:29:53.206Z,32.20
2018-12-29T14:32:23.624Z,31.70
2018-12-29T14:34:53.855Z,38.37
2018-12-29T14:37:24.140Z,43.63
2018-12-29T14:39:54.395Z,33.93
2018-12-29T14:42:24.627Z,28.43
2018-12-29T14:44:54.908Z,29.83
2018-12-29T14:47:25.066Z,35.30
2018-12-29T14:49:55.647Z,32.20
2018-12-29T14:52:25.823Z,32.03
2018-12-29T14:54:56.360Z,28.37
2018-12-29T14:57:26.648Z,25.87
2018-12-29T14:59:56.867Z,25.63
2018-12-29T15:02:27.056Z,28.07
2018-12-29T15:04:57.301Z,34.07
2018-12-29T15:07:27.463Z,26.77
2018-12-29T15:09:57.639Z,28.80
2018-12-29T15:12:27.937Z,31.47
2018-12-29T15:14:58.710Z,28.67
2018-12-29T15:17:29.193Z,29.17
2018-12-29T15:19:59.521Z,28.03
2018-12-29T15:22:29.906Z,28.70
2018-12-29T15:25:00.078Z,35.03
2018-12-29T15:27:30.663Z,35.47
2018-12-29T15:30:00.998Z,39.40
2018-12-29T15:32:31.271Z,37.10
2018-12-29T15:35:01.889Z,39.00
2018-12-29T15:37:32.235Z,38.03
2018-12-29T15:40:02.543Z,53.23
2018-12-29T15:42:32.795Z,48.30
2018-12-29T15:45:03.080Z,48.03
2018-12-29T15:47:33.348Z,45.60
2018-12-29T15:50:03.516Z,56.07
2018-12-29T15:52:33.793Z,45.70
2018-12-29T15:55:04.271Z,44.47
2018-12-29T15:57:34.527Z,38.67
2018-12-29T16:00:05.463Z,42.57
2018-12-29T16:02:35.684Z,40.83
2018-12-29T16:05:06.748Z,45.27
2018-12-29T16:07:37.293Z,46.87
2018-12-29T16:10:07.679Z,41.33
2018-12-29T16:12:37.860Z,45.77
2018-12-29T16:15:08.513Z,47.70
2018-12-29T16:17:38.779Z,58.90
2018-12-29T16:20:08.972Z,52.30
2018-12-29T16:22:39.245Z,53.80
2018-12-29T16:25:09.468Z,49.57
2018-12-29T16:27:40.872Z,52.10
2018-12-29T16:30:11.181Z,50.00
2018-12-29T16:32:41.394Z,55.53
2018-12-29T16:35:11.703Z,64.03
2018-12-29T16:37:41.949Z,59.00
2018-12-29T16:40:12.230Z,53.67
2018-12-29T16:42:42.488Z,53.17
2018-12-29T16:45:12.723Z,56.00
2018-12-29T16:47:43.020Z,53.60
2018-12-29T16:50:13.347Z,53.90
2018-12-29T16:52:46.776Z,46.93
2018-12-29T16:55:17.420Z,47.70
2018-12-29T16:57:47.659Z,51.20
2018-12-29T17:00:17.907Z,49.87
2018-12-29T17:02:49.308Z,51.70
2018-12-29T17:05:19.572Z,53.93
2018-12-29T17:07:49.764Z,59.10
2018-12-29T17:10:20.026Z,51.53
2018-12-29T17:12:50.288Z,55.77
2018-12-29T17:15:20.500Z,53.40
2018-12-29T17:17:50.755Z,56.20
2018-12-29T17:20:21.084Z,53.80
2018-12-29T17:22:51.409Z,57.40
2018-12-29T17:25:23.310Z,55.17
2018-12-29T17:27:53.632Z,59.67
2018-12-29T17:30:23.899Z,56.70
2018-12-29T17:32:54.160Z,55.90
2018-12-29T17:35:24.665Z,59.03
2018-12-29T17:37:54.988Z,54.20
2018-12-29T17:40:25.344Z,51.43
2018-12-29T17:42:55.679Z,61.37
2018-12-29T17:45:25.943Z,55.20
2018-12-29T17:47:56.524Z,58.50
2018-12-29T17:50:27.162Z,53.43
2018-12-29T17:52:57.362Z,56.20
2018-12-29T17:55:27.578Z,52.63
2018-12-29T17:57:57.812Z,54.73
2018-12-29T18:00:30.241Z,48.57
2018-12-29T18:03:00.770Z,52.67
2018-12-29T18:05:31.010Z,61.43
2018-12-29T18:08:01.373Z,56.17
2018-12-29T18:10:33.349Z,47.87
2018-12-29T18:13:03.820Z,65.70
2018-12-29T18:15:34.086Z,56.50
2018-12-29T18:18:04.353Z,58.17
2018-12-29T18:20:34.904Z,59.00
2018-12-29T18:23:05.152Z,57.53
2018-12-29T18:25:35.383Z,66.70
2018-12-29T18:28:05.624Z,68.37
2018-12-29T18:30:36.283Z,75.40
2018-12-29T18:33:06.475Z,72.73
2018-12-29T18:35:36.756Z,70.13
2018-12-29T18:38:07.032Z,70.40
2018-12-29T18:40:37.353Z,70.93
2018-12-29T18:43:07.613Z,80.23
2018-12-29T18:45:37.843Z,61.73
2018-12-29T18:48:08.328Z,78.57
2018-12-29T18:50:38.499Z,70.23
2018-12-29T18:53:08.903Z,78.37
2018-12-29T18:55:39.044Z,79.93
2018-12-29T18:58:09.346Z,76.50
2018-12-29T19:00:39.683Z,88.00
2018-12-29T19:03:09.851Z,88.50
2018-12-29T19:05:40.120Z,83.47
2018-12-29T19:08:10.412Z,92.33
2018-12-29T19:10:40.819Z,88.63
2018-12-29T19:13:11.414Z,84.67
2018-12-29T19:15:41.823Z,83.77
2018-12-29T19:18:12.045Z,94.23
2018-12-29T19:20:42.652Z,78.90
2018-12-29T19:23:13.553Z,96.80
2018-12-29T19:25:44.151Z,89.03
2018-12-29T19:28:14.631Z,97.20
2018-12-29T19:30:45.119Z,85.43
2018-12-29T19:33:15.684Z,91.20
2018-12-29T19:35:46.327Z,85.53
2018-12-29T19:38:17.006Z,84.10
2018-12-29T19:40:47.664Z,81.93
2018-12-29T19:43:18.152Z,84.13
2018-12-29T19:45:48.420Z,80.87
2018-12-29T19:48:18.656Z,92.67
2018-12-29T19:50:48.949Z,77.13
2018-12-29T19:53:19.400Z,85.03
2018-12-29T19:55:50.719Z,77.77
2018-12-29T19:58:20.932Z,83.10
2018-12-29T20:00:51.250Z,70.83
2018-12-29T20:03:21.540Z,82.43
2018-12-29T20:05:52.142Z,92.23
2018-12-29T20:08:22.393Z,85.00
2018-12-29T20:10:52.844Z,78.27
2018-12-29T20:13:23.028Z,74.87
2018-12-29T20:15:53.215Z,75.73
2018-12-29T20:18:23.482Z,75.83
2018-12-29T20:20:53.785Z,65.53
2018-12-29T20:23:24.462Z,64.33
2018-12-29T20:25:54.890Z,72.40
2018-12-29T20:28:25.285Z,67.57
2018-12-29T20:30:55.501Z,62.20
2018-12-29T20:33:26.153Z,64.30
2018-12-29T20:35:56.379Z,53.83
2018-12-29T20:38:26.754Z,59.60
2018-12-29T20:40:56.942Z,66.83
2018-12-29T20:43:27.299Z,50.10
2018-12-29T20:45:57.491Z,45.30
2018-12-29T20:48:27.657Z,46.00
2018-12-29T20:50:57.856Z,45.57
2018-12-29T20:53:28.125Z,52.33
2018-12-29T20:55:59.435Z,36.57
2018-12-29T20:58:29.629Z,40.33
2018-12-29T21:00:59.797Z,36.30
2018-12-29T21:03:30.076Z,41.77
2018-12-29T21:06:00.348Z,35.50
2018-12-29T21:08:30.663Z,29.17
2018-12-29T21:11:00.889Z,42.43
2018-12-29T21:13:31.171Z,26.40
2018-12-29T21:16:01.436Z,40.63
2018-12-29T21:18:31.663Z,30.93
2018-12-29T21:21:01.928Z,40.10
2018-12-29T21:23:32.187Z,34.83
2018-12-29T21:26:04.534Z,26.47
2018-12-29T21:28:34.702Z,27.13
2018-12-29T21:31:04.951Z,19.10
2018-12-29T21:33:35.405Z,20.20
2018-12-29T21:36:05.611Z,30.50
2018-12-29T21:38:35.863Z,27.67
2018-12-29T21:41:06.087Z,20.13
2018-12-29T21:43:37.334Z,25.07
2018-12-29T21:46:07.876Z,18.87
2018-12-29T21:48:38.146Z,16.93
2018-12-29T21:51:08.385Z,18.63
2018-12-29T21:53:38.592Z,23.23
2018-12-29T21:56:11.469Z,17.70
2018-12-29T21:58:41.732Z,26.83
2018-12-29T22:01:11.894Z,18.03
2018-12-29T22:03:42.224Z,20.87
2018-12-29T22:06:12.482Z,17.87
2018-12-29T22:08:42.659Z,17.50
2018-12-29T22:11:12.868Z,21.33
2018-12-29T22:13:43.047Z,36.60
2018-12-29T22:16:13.223Z,22.77
2018-12-29T22:18:43.436Z,16.30
2018-12-29T22:21:13.618Z,21.47
2018-12-29T22:23:44.043Z,15.67
2018-12-29T22:26:14.311Z,21.23
2018-12-29T22:28:44.588Z,22.10
2018-12-29T22:31:15.851Z,22.43
2018-12-29T22:33:45.999Z,15.83
2018-12-29T22:36:16.160Z,21.60
2018-12-29T22:38:46.462Z,26.73
2018-12-29T22:41:16.779Z,17.43
2018-12-29T22:43:47.063Z,22.23
2018-12-29T22:46:17.423Z,22.50
2018-12-29T22:48:47.636Z,20.90
2018-12-29T22:51:17.908Z,15.70
2018-12-29T22:53:48.263Z,12.17
2018-12-29T22:56:18.522Z,24.77
2018-12-29T22:58:49.235Z,19.83
2018-12-29T23:01:19.546Z,15.70
2018-12-29T23:03:51.080Z,17.30
2018-12-29T23:06:21.317Z,19.37
2018-12-29T23:08:51.604Z,16.97
2018-12-29T23:11:21.955Z,24.47
2018-12-29T23:13:52.324Z,31.03
2018-12-29T23:16:22.576Z,21.20
2018-12-29T23:18:53.018Z,16.60
2018-12-29T23:21:23.267Z,32.50
2018-12-29T23:23:53.532Z,23.20
2018-12-29T23:26:23.791Z,13.40
2018-12-29T23:28:53.992Z,23.07
2018-12-29T23:31:24.552Z,22.50
2018-12-29T23:33:54.852Z,20.03
2018-12-29T23:36:25.327Z,20.93
2018-12-29T23:38:55.675Z,22.37
2018-12-29T23:41:25.948Z,23.13
2018-12-29T23:43:56.340Z,24.50
2018-12-29T23:46:26.578Z,29.63
2018-12-29T23:48:56.951Z,27.27
2018-12-29T23:51:27.160Z,31.77
2018-12-29T23:53:57.344Z,32.23
2018-12-29T23:56:27.922Z,14.97
2018-12-29T23:58:58.160Z,23.53
